sensor_id;sensor_type;location;lat;lon;timestamp;pressure;altitude;pressure_sealevel;temperature;humidity
12146;BME280;6136;47.032;15.398;2023-03-04T00:00:57;97758.03;;;0.91;100.00
12146;BME280;6136;47.032;15.398;2023-03-04T00:03:25;97758.00;;;0.93;100.00
12146;BME280;6136;47.032;15.398;2023-03-04T00:05:53;97751.94;;;0.92;100.00
12146;BME280;6136;47.032;15.398;2023-03-04T00:08:21;97759.81;;;0.89;100.00
12146;BME280;6136;47.032;15.398;2023-03-04T00:10:50;97752.25;;;0.77;100.00
12146;BME280;6136;47.032;15.398;2023-03-04T00:13:18;97748.75;;;0.78;100.00
12146;BME280;6136;47.032;15.398;2023-03-04T00:15:47;97747.94;;;0.74;100.00
12146;BME280;6136;47.032;15.398;2023-03-04T00:18:17;97750.66;;;0.70;100.00
12146;BME280;6136;47.032;15.398;2023-03-04T00:20:46;97754.94;;;0.74;100.00
12146;BME280;6136;47.032;15.398;2023-03-04T00:23:15;97753.09;;;0.79;100.00
12146;BME280;6136;47.032;15.398;2023-03-04T00:25:43;97761.66;;;0.84;100.00
12146;BME280;6136;47.032;15.398;2023-03-04T00:28:12;97743.69;;;0.70;100.00
12146;BME280;6136;47.032;15.398;2023-03-04T00:30:40;97756.56;;;0.78;100.00
12146;BME280;6136;47.032;15.398;2023-03-04T00:33:08;97761.03;;;0.73;100.00
12146;BME280;6136;47.032;15.398;2023-03-04T00:35:38;97755.59;;;0.82;100.00
12146;BME280;6136;47.032;15.398;2023-03-04T00:38:07;97754.00;;;0.75;100.00
12146;BME280;6136;47.032;15.398;2023-03-04T00:40:35;97760.22;;;0.69;100.00
12146;BME280;6136;47.032;15.398;2023-03-04T00:43:03;97762.97;;;0.62;100.00
12146;BME280;6136;47.032;15.398;2023-03-04T00:45:32;97748.31;;;0.56;100.00
12146;BME280;6136;47.032;15.398;2023-03-04T00:48:00;97760.50;;;0.56;100.00
12146;BME280;6136;47.032;15.398;2023-03-04T00:50:28;97756.13;;;0.58;100.00
12146;BME280;6136;47.032;15.398;2023-03-04T00:52:58;97759.53;;;0.60;100.00
12146;BME280;6136;47.032;15.398;2023-03-04T00:55:27;97752.63;;;0.59;100.00
12146;BME280;6136;47.032;15.398;2023-03-04T00:57:55;97747.38;;;0.60;100.00
12146;BME280;6136;47.032;15.398;2023-03-04T01:00:24;97751.22;;;0.43;100.00
12146;BME280;6136;47.032;15.398;2023-03-04T01:02:52;97739.97;;;0.39;100.00
12146;BME280;6136;47.032;15.398;2023-03-04T01:05:20;97740.75;;;0.44;100.00
12146;BME280;6136;47.032;15.398;2023-03-04T01:07:49;97743.47;;;0.38;100.00
12146;BME280;6136;47.032;15.398;2023-03-04T01:10:19;97739.22;;;0.32;100.00
12146;BME280;6136;47.032;15.398;2023-03-04T01:12:47;97736.59;;;0.34;100.00
12146;BME280;6136;47.032;15.398;2023-03-04T01:15:16;97739.25;;;0.31;100.00
12146;BME280;6136;47.032;15.398;2023-03-04T01:17:44;97727.16;;;0.28;100.00
12146;BME280;6136;47.032;15.398;2023-03-04T01:20:14;97724.69;;;0.21;100.00
12146;BME280;6136;47.032;15.398;2023-03-04T01:22:42;97707.34;;;0.20;100.00
12146;BME280;6136;47.032;15.398;2023-03-04T01:25:11;97720.09;;;0.33;100.00
12146;BME280;6136;47.032;15.398;2023-03-04T01:27:40;97708.03;;;0.29;100.00
12146;BME280;6136;47.032;15.398;2023-03-04T01:30:09;97709.97;;;0.18;100.00
12146;BME280;6136;47.032;15.398;2023-03-04T01:32:38;97714.28;;;0.21;100.00
12146;BME280;6136;47.032;15.398;2023-03-04T01:35:06;97723.84;;;0.19;100.00
12146;BME280;6136;47.032;15.398;2023-03-04T01:37:35;97719.41;;;0.24;100.00
12146;BME280;6136;47.032;15.398;2023-03-04T01:40:04;97719.53;;;0.18;100.00
12146;BME280;6136;47.032;15.398;2023-03-04T01:42:33;97718.75;;;0.13;100.00
12146;BME280;6136;47.032;15.398;2023-03-04T01:45:05;97712.75;;;0.09;100.00
12146;BME280;6136;47.032;15.398;2023-03-04T01:47:34;97711.13;;;0.04;100.00
12146;BME280;6136;47.032;15.398;2023-03-04T01:50:06;97711.97;;;0.04;100.00
12146;BME280;6136;47.032;15.398;2023-03-04T01:52:39;97713.63;;;0.08;100.00
12146;BME280;6136;47.032;15.398;2023-03-04T01:55:14;97711.94;;;0.06;100.00
12146;BME280;6136;47.032;15.398;2023-03-04T01:57:43;97705.00;;;0.06;100.00
12146;BME280;6136;47.032;15.398;2023-03-04T02:00:28;97708.50;;;0.05;100.00
12146;BME280;6136;47.032;15.398;2023-03-04T02:02:59;97689.53;;;-0.03;100.00
12146;BME280;6136;47.032;15.398;2023-03-04T02:05:29;97699.06;;;-0.02;100.00
12146;BME280;6136;47.032;15.398;2023-03-04T02:07:58;97693.03;;;-0.04;100.00
12146;BME280;6136;47.032;15.398;2023-03-04T02:10:27;97693.88;;;-0.04;100.00
12146;BME280;6136;47.032;15.398;2023-03-04T02:12:55;97696.47;;;-0.02;100.00
12146;BME280;6136;47.032;15.398;2023-03-04T02:15:24;97689.56;;;-0.06;100.00
12146;BME280;6136;47.032;15.398;2023-03-04T02:17:54;97686.09;;;-0.07;100.00
12146;BME280;6136;47.032;15.398;2023-03-04T02:20:32;97691.31;;;-0.07;100.00
12146;BME280;6136;47.032;15.398;2023-03-04T02:23:08;97684.47;;;-0.12;100.00
12146;BME280;6136;47.032;15.398;2023-03-04T02:25:42;97681.13;;;-0.17;100.00
12146;BME280;6136;47.032;15.398;2023-03-04T02:28:13;97672.47;;;-0.19;100.00
12146;BME280;6136;47.032;15.398;2023-03-04T02:30:42;97665.75;;;-0.32;100.00
12146;BME280;6136;47.032;15.398;2023-03-04T02:33:14;97668.41;;;-0.35;100.00
12146;BME280;6136;47.032;15.398;2023-03-04T02:35:44;97677.97;;;-0.36;100.00
12146;BME280;6136;47.032;15.398;2023-03-04T02:38:13;97672.72;;;-0.34;100.00
12146;BME280;6136;47.032;15.398;2023-03-04T02:40:44;97665.75;;;-0.32;100.00
12146;BME280;6136;47.032;15.398;2023-03-04T02:43:15;97663.22;;;-0.37;100.00
12146;BME280;6136;47.032;15.398;2023-03-04T02:45:46;97652.75;;;-0.32;100.00
12146;BME280;6136;47.032;15.398;2023-03-04T02:48:18;97667.53;;;-0.34;100.00
12146;BME280;6136;47.032;15.398;2023-03-04T02:50:48;97657.06;;;-0.31;100.00
12146;BME280;6136;47.032;15.398;2023-03-04T02:53:18;97655.38;;;-0.35;100.00
12146;BME280;6136;47.032;15.398;2023-03-04T02:55:48;97647.97;;;-0.57;100.00
12146;BME280;6136;47.032;15.398;2023-03-04T02:58:19;97654.03;;;-0.58;100.00
12146;BME280;6136;47.032;15.398;2023-03-04T03:00:47;97652.31;;;-0.59;100.00
12146;BME280;6136;47.032;15.398;2023-03-04T03:03:15;97649.03;;;-0.67;100.00
12146;BME280;6136;47.032;15.398;2023-03-04T03:05:44;97652.38;;;-0.62;100.00
12146;BME280;6136;47.032;15.398;2023-03-04T03:08:12;97649.81;;;-0.65;100.00
12146;BME280;6136;47.032;15.398;2023-03-04T03:10:40;97650.56;;;-0.57;100.00
12146;BME280;6136;47.032;15.398;2023-03-04T03:13:08;97632.34;;;-0.58;100.00
12146;BME280;6136;47.032;15.398;2023-03-04T03:15:38;97633.41;;;-0.67;100.00
12146;BME280;6136;47.032;15.398;2023-03-04T03:18:09;97638.66;;;-0.71;100.00
12146;BME280;6136;47.032;15.398;2023-03-04T03:20:37;97636.88;;;-0.68;100.00
12146;BME280;6136;47.032;15.398;2023-03-04T03:23:05;97641.22;;;-0.67;100.00
12146;BME280;6136;47.032;15.398;2023-03-04T03:25:34;97642.91;;;-0.66;100.00
12146;BME280;6136;47.032;15.398;2023-03-04T03:28:04;97643.66;;;-0.59;100.00
12146;BME280;6136;47.032;15.398;2023-03-04T03:30:32;97631.50;;;-0.59;100.00
12146;BME280;6136;47.032;15.398;2023-03-04T03:33:04;97640.00;;;-0.49;100.00
12146;BME280;6136;47.032;15.398;2023-03-04T03:35:33;97634.09;;;-0.57;100.00
12146;BME280;6136;47.032;15.398;2023-03-04T03:38:01;97634.09;;;-0.59;100.00
12146;BME280;6136;47.032;15.398;2023-03-04T03:40:29;97636.88;;;-0.68;100.00
12146;BME280;6136;47.032;15.398;2023-03-04T03:42:57;97624.19;;;-0.88;100.00
12146;BME280;6136;47.032;15.398;2023-03-04T03:45:25;97635.47;;;-0.89;100.00
12146;BME280;6136;47.032;15.398;2023-03-04T03:47:54;97625.94;;;-0.88;100.00
12146;BME280;6136;47.032;15.398;2023-03-04T03:50:23;97619.81;;;-0.84;100.00
12146;BME280;6136;47.032;15.398;2023-03-04T03:52:51;97624.06;;;-0.80;100.00
12146;BME280;6136;47.032;15.398;2023-03-04T03:55:20;97626.63;;;-0.77;100.00
12146;BME280;6136;47.032;15.398;2023-03-04T03:57:48;97621.34;;;-0.74;100.00
12146;BME280;6136;47.032;15.398;2023-03-04T04:00:17;97619.66;;;-0.75;100.00
12146;BME280;6136;47.032;15.398;2023-03-04T04:02:46;97621.47;;;-0.80;100.00
12146;BME280;6136;47.032;15.398;2023-03-04T04:05:14;97619.91;;;-0.90;100.00
12146;BME280;6136;47.032;15.398;2023-03-04T04:07:44;97618.09;;;-0.87;100.00
12146;BME280;6136;47.032;15.398;2023-03-04T04:10:12;97612.34;;;-1.04;100.00
12146;BME280;6136;47.032;15.398;2023-03-04T04:12:40;97619.16;;;-0.97;100.00
12146;BME280;6136;47.032;15.398;2023-03-04T04:15:10;97618.13;;;-0.88;100.00
12146;BME280;6136;47.032;15.398;2023-03-04T04:17:38;97619.91;;;-0.90;100.00
12146;BME280;6136;47.032;15.398;2023-03-04T04:20:08;97620.78;;;-0.90;100.00
12146;BME280;6136;47.032;15.398;2023-03-04T04:22:36;97612.13;;;-0.92;100.00
12146;BME280;6136;47.032;15.398;2023-03-04T04:25:07;97619.94;;;-0.93;100.00
12146;BME280;6136;47.032;15.398;2023-03-04T04:27:36;97626.88;;;-0.92;100.00
12146;BME280;6136;47.032;15.398;2023-03-04T04:30:05;97619.16;;;-0.97;100.00
12146;BME280;6136;47.032;15.398;2023-03-04T04:32:34;97615.72;;;-1.00;100.00
12146;BME280;6136;47.032;15.398;2023-03-04T04:35:02;97621.88;;;-1.04;100.00
12146;BME280;6136;47.032;15.398;2023-03-04T04:37:31;97613.25;;;-1.09;100.00
12146;BME280;6136;47.032;15.398;2023-03-04T04:39:59;97608.16;;;-1.15;100.00
12146;BME280;6136;47.032;15.398;2023-03-04T04:42:29;97614.22;;;-1.15;100.00
12146;BME280;6136;47.032;15.398;2023-03-04T04:44:57;97611.63;;;-1.15;100.00
12146;BME280;6136;47.032;15.398;2023-03-04T04:47:25;97613.47;;;-1.22;100.00
12146;BME280;6136;47.032;15.398;2023-03-04T04:49:53;97610.00;;;-1.21;100.00
12146;BME280;6136;47.032;15.398;2023-03-04T04:52:21;97606.41;;;-1.13;100.00
12146;BME280;6136;47.032;15.398;2023-03-04T04:54:49;97607.28;;;-1.14;100.00
12146;BME280;6136;47.032;15.398;2023-03-04T04:57:17;97603.84;;;-1.17;100.00
12146;BME280;6136;47.032;15.398;2023-03-04T04:59:47;97608.16;;;-1.15;100.00
12146;BME280;6136;47.032;15.398;2023-03-04T05:02:15;97608.16;;;-1.14;100.00
12146;BME280;6136;47.032;15.398;2023-03-04T05:04:43;97604.66;;;-1.11;100.00
12146;BME280;6136;47.032;15.398;2023-03-04T05:07:11;97599.53;;;-1.18;100.00
12146;BME280;6136;47.032;15.398;2023-03-04T05:09:40;97593.53;;;-1.23;100.00
12146;BME280;6136;47.032;15.398;2023-03-04T05:12:08;97591.78;;;-1.19;100.00
12146;BME280;6136;47.032;15.398;2023-03-04T05:14:36;97596.13;;;-1.21;100.00
12146;BME280;6136;47.032;15.398;2023-03-04T05:17:05;97606.53;;;-1.23;100.00
12146;BME280;6136;47.032;15.398;2023-03-04T05:19:33;97613.50;;;-1.25;100.00
12146;BME280;6136;47.032;15.398;2023-03-04T05:22:02;97616.94;;;-1.23;100.00
12146;BME280;6136;47.032;15.398;2023-03-04T05:24:30;97605.00;;;-1.34;100.00
12146;BME280;6136;47.032;15.398;2023-03-04T05:26:58;97605.03;;;-1.39;100.00
12146;BME280;6136;47.032;15.398;2023-03-04T05:29:27;97610.47;;;-1.54;100.00
12146;BME280;6136;47.032;15.398;2023-03-04T05:31:55;97609.59;;;-1.53;100.00
12146;BME280;6136;47.032;15.398;2023-03-04T05:34:24;97600.91;;;-1.52;100.00
12146;BME280;6136;47.032;15.398;2023-03-04T05:36:52;97601.78;;;-1.53;100.00
12146;BME280;6136;47.032;15.398;2023-03-04T05:39:20;97603.38;;;-1.43;100.00
12146;BME280;6136;47.032;15.398;2023-03-04T05:41:49;97603.38;;;-1.43;100.00
12146;BME280;6136;47.032;15.398;2023-03-04T05:44:17;97603.50;;;-1.52;100.00
12146;BME280;6136;47.032;15.398;2023-03-04T05:46:45;97602.66;;;-1.52;100.00
12146;BME280;6136;47.032;15.398;2023-03-04T05:49:13;97604.34;;;-1.50;100.00
12146;BME280;6136;47.032;15.398;2023-03-04T05:51:43;97605.16;;;-1.45;100.00
12146;BME280;6136;47.032;15.398;2023-03-04T05:54:11;97603.38;;;-1.41;100.00
12146;BME280;6136;47.032;15.398;2023-03-04T05:56:39;97602.44;;;-1.37;100.00
12146;BME280;6136;47.032;15.398;2023-03-04T05:59:07;97600.59;;;-1.29;100.00
12146;BME280;6136;47.032;15.398;2023-03-04T06:01:35;97599.59;;;-1.21;100.00
12146;BME280;6136;47.032;15.398;2023-03-04T06:04:04;97610.66;;;-1.09;100.00
12146;BME280;6136;47.032;15.398;2023-03-04T06:06:32;97609.66;;;-0.99;100.00
12146;BME280;6136;47.032;15.398;2023-03-04T06:09:01;97606.22;;;-1.01;100.00
12146;BME280;6136;47.032;15.398;2023-03-04T06:11:30;97612.06;;;-0.89;100.00
12146;BME280;6136;47.032;15.398;2023-03-04T06:14:00;97614.53;;;-0.81;100.00
12146;BME280;6136;47.032;15.398;2023-03-04T06:16:29;97619.47;;;-0.66;100.00
12146;BME280;6136;47.032;15.398;2023-03-04T06:18:57;97621.19;;;-0.65;100.00
12146;BME280;6136;47.032;15.398;2023-03-04T06:21:25;97629.75;;;-0.57;100.00
12146;BME280;6136;47.032;15.398;2023-03-04T06:23:53;97614.97;;;-0.55;100.00
12146;BME280;6136;47.032;15.398;2023-03-04T06:26:23;97622.50;;;-0.40;100.00
12146;BME280;6136;47.032;15.398;2023-03-04T06:28:51;97606.56;;;-0.23;100.00
12146;BME280;6136;47.032;15.398;2023-03-04T06:31:22;97612.41;;;-0.12;100.00
12146;BME280;6136;47.032;15.398;2023-03-04T06:33:50;97613.09;;;-0.02;100.00
12146;BME280;6136;47.032;15.398;2023-03-04T06:36:19;97620.78;;;0.06;100.00
12146;BME280;6136;47.032;15.398;2023-03-04T06:38:47;97616.91;;;0.25;100.00
12146;BME280;6136;47.032;15.398;2023-03-04T06:41:15;97620.78;;;0.46;100.00
12146;BME280;6136;47.032;15.398;2023-03-04T06:43:46;97620.53;;;0.59;100.00
12146;BME280;6136;47.032;15.398;2023-03-04T06:46:14;97626.16;;;0.78;100.00
12146;BME280;6136;47.032;15.398;2023-03-04T06:48:42;97619.72;;;0.94;100.00
12146;BME280;6136;47.032;15.398;2023-03-04T06:51:11;97628.06;;;1.08;100.00
12146;BME280;6136;47.032;15.398;2023-03-04T06:53:39;97628.34;;;1.33;100.00
12146;BME280;6136;47.032;15.398;2023-03-04T06:56:09;97628.66;;;1.55;100.00
12146;BME280;6136;47.032;15.398;2023-03-04T06:58:38;97623.84;;;1.72;100.00
12146;BME280;6136;47.032;15.398;2023-03-04T07:01:14;97618.41;;;2.12;100.00
12146;BME280;6136;47.032;15.398;2023-03-04T07:03:42;97619.63;;;2.30;100.00
12146;BME280;6136;47.032;15.398;2023-03-04T07:06:13;97615.09;;;2.66;100.00
12146;BME280;6136;47.032;15.398;2023-03-04T07:08:42;97614.16;;;3.23;100.00
12146;BME280;6136;47.032;15.398;2023-03-04T07:11:10;97620.25;;;3.76;100.00
12146;BME280;6136;47.032;15.398;2023-03-04T07:13:38;97610.41;;;4.07;100.00
12146;BME280;6136;47.032;15.398;2023-03-04T07:16:09;97619.25;;;4.28;100.00
12146;BME280;6136;47.032;15.398;2023-03-04T07:18:39;97613.22;;;4.49;97.60
12146;BME280;6136;47.032;15.398;2023-03-04T07:21:07;97614.56;;;4.59;98.02
12146;BME280;6136;47.032;15.398;2023-03-04T07:23:36;97617.84;;;5.11;94.24
12146;BME280;6136;47.032;15.398;2023-03-04T07:26:04;97616.56;;;5.41;89.43
12146;BME280;6136;47.032;15.398;2023-03-04T07:28:34;97608.91;;;5.57;88.84
12146;BME280;6136;47.032;15.398;2023-03-04T07:31:11;97603.84;;;6.15;84.61
12146;BME280;6136;47.032;15.398;2023-03-04T07:33:41;97604.56;;;6.57;82.53
12146;BME280;6136;47.032;15.398;2023-03-04T07:36:09;97607.19;;;6.76;81.49
12146;BME280;6136;47.032;15.398;2023-03-04T07:38:43;97606.31;;;7.13;79.48
12146;BME280;6136;47.032;15.398;2023-03-04T07:41:11;97607.94;;;7.52;76.92
12146;BME280;6136;47.032;15.398;2023-03-04T07:43:39;97610.28;;;8.44;74.25
12146;BME280;6136;47.032;15.398;2023-03-04T07:46:07;97607.41;;;9.58;69.15
12146;BME280;6136;47.032;15.398;2023-03-04T07:48:36;97607.31;;;9.90;65.67
12146;BME280;6136;47.032;15.398;2023-03-04T07:51:08;97604.63;;;10.05;64.15
12146;BME280;6136;47.032;15.398;2023-03-04T07:53:37;97600.63;;;10.85;60.61
12146;BME280;6136;47.032;15.398;2023-03-04T07:56:07;97590.38;;;11.75;57.25
12146;BME280;6136;47.032;15.398;2023-03-04T07:58:38;97593.22;;;12.88;53.25
12146;BME280;6136;47.032;15.398;2023-03-04T08:01:10;97591.16;;;11.63;55.14
12146;BME280;6136;47.032;15.398;2023-03-04T08:03:39;97585.22;;;11.72;56.34
12146;BME280;6136;47.032;15.398;2023-03-04T08:06:10;97585.06;;;11.75;54.95
12146;BME280;6136;47.032;15.398;2023-03-04T08:08:39;97581.31;;;12.04;54.35
12146;BME280;6136;47.032;15.398;2023-03-04T08:11:10;97578.56;;;12.06;54.58
12146;BME280;6136;47.032;15.398;2023-03-04T08:13:38;97576.66;;;12.46;52.93
12146;BME280;6136;47.032;15.398;2023-03-04T08:16:07;97568.13;;;12.79;51.16
12146;BME280;6136;47.032;15.398;2023-03-04T08:18:35;97572.97;;;12.98;52.27
12146;BME280;6136;47.032;15.398;2023-03-04T08:21:09;97564.16;;;14.27;48.24
12146;BME280;6136;47.032;15.398;2023-03-04T08:23:38;97564.97;;;14.17;48.21
12146;BME280;6136;47.032;15.398;2023-03-04T08:26:11;97559.22;;;14.45;48.13
12146;BME280;6136;47.032;15.398;2023-03-04T08:28:39;97554.97;;;15.21;45.88
12146;BME280;6136;47.032;15.398;2023-03-04T08:31:08;97561.16;;;15.21;45.80
12146;BME280;6136;47.032;15.398;2023-03-04T08:33:36;97553.91;;;15.66;45.82
12146;BME280;6136;47.032;15.398;2023-03-04T08:36:05;97552.72;;;16.12;43.90
12146;BME280;6136;47.032;15.398;2023-03-04T08:38:35;97548.44;;;16.20;43.88
12146;BME280;6136;47.032;15.398;2023-03-04T08:41:04;97550.34;;;16.29;42.20
12146;BME280;6136;47.032;15.398;2023-03-04T08:43:33;97542.53;;;16.47;42.34
12146;BME280;6136;47.032;15.398;2023-03-04T08:46:01;97538.13;;;16.16;43.72
12146;BME280;6136;47.032;15.398;2023-03-04T08:48:30;97536.72;;;16.93;42.79
12146;BME280;6136;47.032;15.398;2023-03-04T08:50:58;97541.28;;;17.02;42.08
12146;BME280;6136;47.032;15.398;2023-03-04T08:53:26;97536.41;;;17.36;40.86
12146;BME280;6136;47.032;15.398;2023-03-04T08:55:56;97522.81;;;18.73;38.82
12146;BME280;6136;47.032;15.398;2023-03-04T08:58:24;97522.09;;;18.05;40.35
12146;BME280;6136;47.032;15.398;2023-03-04T09:00:52;97522.09;;;17.95;39.55
12146;BME280;6136;47.032;15.398;2023-03-04T09:03:20;97518.50;;;17.27;42.38
12146;BME280;6136;47.032;15.398;2023-03-04T09:05:50;97519.41;;;18.14;40.03
12146;BME280;6136;47.032;15.398;2023-03-04T09:08:18;97506.22;;;19.59;37.39
12146;BME280;6136;47.032;15.398;2023-03-04T09:10:46;97503.47;;;19.69;37.00
12146;BME280;6136;47.032;15.398;2023-03-04T09:13:20;97512.25;;;19.26;39.00
12146;BME280;6136;47.032;15.398;2023-03-04T09:15:52;97502.19;;;19.46;38.53
12146;BME280;6136;47.032;15.398;2023-03-04T09:18:22;97508.28;;;19.20;38.66
12146;BME280;6136;47.032;15.398;2023-03-04T09:20:51;97494.31;;;20.23;37.50
12146;BME280;6136;47.032;15.398;2023-03-04T09:23:19;97493.41;;;19.89;37.96
12146;BME280;6136;47.032;15.398;2023-03-04T09:25:48;97489.44;;;20.01;37.64
12146;BME280;6136;47.032;15.398;2023-03-04T09:28:17;97490.16;;;20.03;38.19
12146;BME280;6136;47.032;15.398;2023-03-04T09:30:46;97484.34;;;19.09;39.00
12146;BME280;6136;47.032;15.398;2023-03-04T09:33:14;97478.31;;;19.25;38.24
12146;BME280;6136;47.032;15.398;2023-03-04T09:35:43;97474.00;;;20.03;37.03
12146;BME280;6136;47.032;15.398;2023-03-04T09:38:11;97479.66;;;20.17;36.24
12146;BME280;6136;47.032;15.398;2023-03-04T09:40:41;97472.41;;;20.62;35.58
12146;BME280;6136;47.032;15.398;2023-03-04T09:43:15;97468.53;;;21.32;34.00
12146;BME280;6136;47.032;15.398;2023-03-04T09:45:49;97467.03;;;22.59;30.44
12146;BME280;6136;47.032;15.398;2023-03-04T09:48:21;97452.97;;;23.19;29.66
12146;BME280;6136;47.032;15.398;2023-03-04T09:51:03;97452.66;;;24.65;27.02
12146;BME280;6136;47.032;15.398;2023-03-04T09:53:39;97451.34;;;24.76;25.17
12146;BME280;6136;47.032;15.398;2023-03-04T09:56:13;97445.81;;;26.56;22.58
12146;BME280;6136;47.032;15.398;2023-03-04T09:58:46;97440.28;;;25.94;24.25
12146;BME280;6136;47.032;15.398;2023-03-04T10:01:23;97444.78;;;25.86;24.55
12146;BME280;6136;47.032;15.398;2023-03-04T10:03:56;97438.25;;;26.86;22.43
12146;BME280;6136;47.032;15.398;2023-03-04T10:06:26;97437.66;;;26.56;22.71
12146;BME280;6136;47.032;15.398;2023-03-04T10:08:57;97434.19;;;26.13;23.90
12146;BME280;6136;47.032;15.398;2023-03-04T10:11:31;97423.25;;;26.06;22.31
12146;BME280;6136;47.032;15.398;2023-03-04T10:14:15;97416.97;;;27.43;21.40
12146;BME280;6136;47.032;15.398;2023-03-04T10:16:52;97418.34;;;28.66;20.35
12146;BME280;6136;47.032;15.398;2023-03-04T10:19:27;97412.91;;;25.95;22.37
12146;BME280;6136;47.032;15.398;2023-03-04T10:21:57;97400.09;;;28.67;19.80
12146;BME280;6136;47.032;15.398;2023-03-04T10:24:27;97401.31;;;26.29;21.86
12146;BME280;6136;47.032;15.398;2023-03-04T10:26:59;97396.59;;;25.67;22.76
12146;BME280;6136;47.032;15.398;2023-03-04T10:29:32;97388.50;;;26.23;21.88
12146;BME280;6136;47.032;15.398;2023-03-04T10:32:01;97385.91;;;25.87;21.82
12146;BME280;6136;47.032;15.398;2023-03-04T10:34:30;97390.09;;;26.39;21.21
12146;BME280;6136;47.032;15.398;2023-03-04T10:36:59;97386.25;;;28.55;19.50
12146;BME280;6136;47.032;15.398;2023-03-04T10:39:30;97381.22;;;28.58;20.09
12146;BME280;6136;47.032;15.398;2023-03-04T10:42:00;97372.25;;;28.12;19.34
12146;BME280;6136;47.032;15.398;2023-03-04T10:44:30;97366.28;;;30.88;17.22
12146;BME280;6136;47.032;15.398;2023-03-04T10:47:01;97353.91;;;29.99;17.83
12146;BME280;6136;47.032;15.398;2023-03-04T10:49:29;97358.50;;;31.21;16.84
12146;BME280;6136;47.032;15.398;2023-03-04T10:52:01;97358.34;;;31.64;16.77
12146;BME280;6136;47.032;15.398;2023-03-04T10:54:31;97353.50;;;29.89;17.64
12146;BME280;6136;47.032;15.398;2023-03-04T10:57:05;97350.22;;;29.80;18.00
12146;BME280;6136;47.032;15.398;2023-03-04T10:59:43;97343.34;;;29.46;18.97
12146;BME280;6136;47.032;15.398;2023-03-04T11:02:20;97340.19;;;28.07;19.28
12146;BME280;6136;47.032;15.398;2023-03-04T11:04:51;97339.16;;;28.08;20.12
12146;BME280;6136;47.032;15.398;2023-03-04T11:07:20;97342.50;;;28.37;20.11
12146;BME280;6136;47.032;15.398;2023-03-04T11:09:49;97333.78;;;30.36;17.82
12146;BME280;6136;47.032;15.398;2023-03-04T11:12:20;97329.91;;;30.01;17.87
12146;BME280;6136;47.032;15.398;2023-03-04T11:14:50;97332.03;;;29.36;18.56
12146;BME280;6136;47.032;15.398;2023-03-04T11:17:22;97328.88;;;30.63;17.86
12146;BME280;6136;47.032;15.398;2023-03-04T11:19:56;97314.81;;;30.78;17.24
12146;BME280;6136;47.032;15.398;2023-03-04T11:22:27;97325.31;;;28.16;19.41
12146;BME280;6136;47.032;15.398;2023-03-04T11:24:59;97321.91;;;27.42;20.58
12146;BME280;6136;47.032;15.398;2023-03-04T11:27:40;97308.34;;;28.14;19.39
12146;BME280;6136;47.032;15.398;2023-03-04T11:30:23;97313.84;;;28.72;19.01
12146;BME280;6136;47.032;15.398;2023-03-04T11:32:57;97305.13;;;29.02;18.24
12146;BME280;6136;47.032;15.398;2023-03-04T11:35:32;97298.41;;;28.53;18.70
12146;BME280;6136;47.032;15.398;2023-03-04T11:38:05;97290.66;;;28.50;19.08
12146;BME280;6136;47.032;15.398;2023-03-04T11:40:39;97294.34;;;28.82;18.68
12146;BME280;6136;47.032;15.398;2023-03-04T11:43:13;97284.44;;;28.87;18.99
12146;BME280;6136;47.032;15.398;2023-03-04T11:46:02;97290.28;;;29.60;17.92
12146;BME280;6136;47.032;15.398;2023-03-04T11:48:47;97286.31;;;28.09;19.82
12146;BME280;6136;47.032;15.398;2023-03-04T11:51:20;97275.00;;;29.21;18.16
12146;BME280;6136;47.032;15.398;2023-03-04T11:53:58;97279.66;;;25.97;21.41
12146;BME280;6136;47.032;15.398;2023-03-04T11:56:35;97282.50;;;27.05;20.72
12146;BME280;6136;47.032;15.398;2023-03-04T11:59:19;97276.66;;;28.33;19.14
12146;BME280;6136;47.032;15.398;2023-03-04T12:02:13;97275.88;;;27.80;20.11
12146;BME280;6136;47.032;15.398;2023-03-04T12:05:04;97256.88;;;29.02;18.39
12146;BME280;6136;47.032;15.398;2023-03-04T12:07:51;97258.41;;;29.23;17.54
12146;BME280;6136;47.032;15.398;2023-03-04T12:10:27;97255.56;;;29.67;17.28
12146;BME280;6136;47.032;15.398;2023-03-04T12:13:09;97258.91;;;30.56;16.74
12146;BME280;6136;47.032;15.398;2023-03-04T12:15:49;97250.09;;;29.67;17.44
12146;BME280;6136;47.032;15.398;2023-03-04T12:18:41;97251.44;;;30.26;17.02
12146;BME280;6136;47.032;15.398;2023-03-04T12:21:31;97240.44;;;28.71;18.26
12146;BME280;6136;47.032;15.398;2023-03-04T12:24:17;97243.47;;;28.49;18.41
12146;BME280;6136;47.032;15.398;2023-03-04T12:26:53;97234.88;;;28.90;17.59
12146;BME280;6136;47.032;15.398;2023-03-04T12:29:28;97228.47;;;28.27;18.05
12146;BME280;6136;47.032;15.398;2023-03-04T12:32:03;97234.41;;;27.52;19.16
12146;BME280;6136;47.032;15.398;2023-03-04T12:42:21;97224.50;;;25.62;20.91
12146;BME280;6136;47.032;15.398;2023-03-04T12:52:42;97207.47;;;25.74;21.09
12146;BME280;6136;47.032;15.398;2023-03-04T12:55:49;97208.59;;;24.31;23.19
12146;BME280;6136;47.032;15.398;2023-03-04T12:59:18;97201.81;;;24.20;23.68
12146;BME280;6136;47.032;15.398;2023-03-04T13:02:53;97200.72;;;23.71;23.83
12146;BME280;6136;47.032;15.398;2023-03-04T13:06:51;97191.25;;;25.25;21.82
12146;BME280;6136;47.032;15.398;2023-03-04T13:10:20;97185.81;;;27.75;19.47
12146;BME280;6136;47.032;15.398;2023-03-04T13:13:31;97191.28;;;27.22;19.36
12146;BME280;6136;47.032;15.398;2023-03-04T13:16:14;97186.00;;;28.51;19.16
12146;BME280;6136;47.032;15.398;2023-03-04T13:19:54;97188.41;;;28.72;18.32
12146;BME280;6136;47.032;15.398;2023-03-04T13:23:48;97184.03;;;28.13;18.94
12146;BME280;6136;47.032;15.398;2023-03-04T13:26:55;97177.00;;;27.79;18.97
12146;BME280;6136;47.032;15.398;2023-03-04T13:31:13;97172.25;;;28.33;18.24
12146;BME280;6136;47.032;15.398;2023-03-04T13:34:58;97172.16;;;26.70;20.82
12146;BME280;6136;47.032;15.398;2023-03-04T13:45:32;97154.63;;;27.77;19.25
12146;BME280;6136;47.032;15.398;2023-03-04T13:49:18;97162.00;;;27.11;19.55
12146;BME280;6136;47.032;15.398;2023-03-04T13:53:01;97153.38;;;27.60;19.09